sensor_id;sensor_type;location;lat;lon;timestamp;pressure;altitude;pressure_sealevel;temperature
72054;BMP280;59918;51.280;7.950;2022-11-30T00:00:58;98474.56;;;8.48
72054;BMP280;59918;51.280;7.950;2022-11-30T00:03:24;98472.81;;;8.49
72054;BMP280;59918;51.280;7.950;2022-11-30T00:05:50;98477.31;;;8.47
72054;BMP280;59918;51.280;7.950;2022-11-30T00:08:15;98480.50;;;8.49
72054;BMP280;59918;51.280;7.950;2022-11-30T00:10:41;98475.38;;;8.49
72054;BMP280;59918;51.280;7.950;2022-11-30T00:13:07;98481.47;;;8.48
72054;BMP280;59918;51.280;7.950;2022-11-30T00:15:32;98472.19;;;8.47
72054;BMP280;59918;51.280;7.950;2022-11-30T00:17:58;98473.78;;;8.48
72054;BMP280;59918;51.280;7.950;2022-11-30T00:20:26;98473.78;;;8.48
72054;BMP280;59918;51.280;7.950;2022-11-30T00:22:53;98468.03;;;8.46
72054;BMP280;59918;51.280;7.950;2022-11-30T00:25:21;98468.66;;;8.48
72054;BMP280;59918;51.280;7.950;2022-11-30T00:27:49;98472.19;;;8.47
72054;BMP280;59918;51.280;7.950;2022-11-30T00:30:14;98478.91;;;8.48
72054;BMP280;59918;51.280;7.950;2022-11-30T00:32:40;98477.31;;;8.47
72054;BMP280;59918;51.280;7.950;2022-11-30T00:35:05;98476.34;;;8.48
72054;BMP280;59918;51.280;7.950;2022-11-30T00:37:33;98470.25;;;8.49
72054;BMP280;59918;51.280;7.950;2022-11-30T00:39:58;98473.78;;;8.48
72054;BMP280;59918;51.280;7.950;2022-11-30T00:42:26;98479.53;;;8.50
72054;BMP280;59918;51.280;7.950;2022-11-30T00:44:57;98469.28;;;8.50
72054;BMP280;59918;51.280;7.950;2022-11-30T00:47:22;98468.66;;;8.48
72054;BMP280;59918;51.280;7.950;2022-11-30T00:49:47;98464.31;;;8.48
72054;BMP280;59918;51.280;7.950;2022-11-30T00:52:12;98455.03;;;8.47
72054;BMP280;59918;51.280;7.950;2022-11-30T00:54:38;98460.34;;;8.46
72054;BMP280;59918;51.280;7.950;2022-11-30T00:57:05;98461.31;;;8.45
72054;BMP280;59918;51.280;7.950;2022-11-30T00:59:31;98456.19;;;8.45
72054;BMP280;59918;51.280;7.950;2022-11-30T01:01:56;98457.78;;;8.46
72054;BMP280;59918;51.280;7.950;2022-11-30T01:04:21;98464.50;;;8.47
72054;BMP280;59918;51.280;7.950;2022-11-30T01:06:47;98461.13;;;8.46
72054;BMP280;59918;51.280;7.950;2022-11-30T01:09:15;98463.53;;;8.48
72054;BMP280;59918;51.280;7.950;2022-11-30T01:11:40;98462.91;;;8.46
72054;BMP280;59918;51.280;7.950;2022-11-30T01:14:05;98463.53;;;8.48
72054;BMP280;59918;51.280;7.950;2022-11-30T01:16:32;98479.72;;;8.48
72054;BMP280;59918;51.280;7.950;2022-11-30T01:18:57;98478.91;;;8.48
72054;BMP280;59918;51.280;7.950;2022-11-30T01:21:25;98481.47;;;8.48
72054;BMP280;59918;51.280;7.950;2022-11-30T01:23:51;98478.28;;;8.46
72054;BMP280;59918;51.280;7.950;2022-11-30T01:26:17;98480.84;;;8.46
72054;BMP280;59918;51.280;7.950;2022-11-30T01:28:44;98473.50;;;8.43
72054;BMP280;59918;51.280;7.950;2022-11-30T01:31:12;98477.06;;;8.42
72054;BMP280;59918;51.280;7.950;2022-11-30T01:33:40;98470.47;;;8.39
72054;BMP280;59918;51.280;7.950;2022-11-30T01:36:15;98468.91;;;8.38
72054;BMP280;59918;51.280;7.950;2022-11-30T01:38:46;98471.63;;;8.37
72054;BMP280;59918;51.280;7.950;2022-11-30T01:41:14;98471.63;;;8.37
72054;BMP280;59918;51.280;7.950;2022-11-30T01:43:42;98464.13;;;8.36
72054;BMP280;59918;51.280;7.950;2022-11-30T01:46:41;98470.06;;;8.36
72054;BMP280;59918;51.280;7.950;2022-11-30T01:51:39;98472.44;;;8.37
72054;BMP280;59918;51.280;7.950;2022-11-30T01:54:08;98471.31;;;8.40
72054;BMP280;59918;51.280;7.950;2022-11-30T01:56:36;98472.88;;;8.41
72054;BMP280;59918;51.280;7.950;2022-11-30T01:59:03;98470.31;;;8.41
72054;BMP280;59918;51.280;7.950;2022-11-30T02:01:28;98476.69;;;8.45
72054;BMP280;59918;51.280;7.950;2022-11-30T02:04:07;98472.53;;;8.44
72054;BMP280;59918;51.280;7.950;2022-11-30T02:06:35;98478.47;;;8.44
72054;BMP280;59918;51.280;7.950;2022-11-30T02:09:02;98477.69;;;8.44
72054;BMP280;59918;51.280;7.950;2022-11-30T02:11:27;98478.47;;;8.44
72054;BMP280;59918;51.280;7.950;2022-11-30T02:17:01;98473.34;;;8.44
72054;BMP280;59918;51.280;7.950;2022-11-30T02:22:28;98478.63;;;8.43
72054;BMP280;59918;51.280;7.950;2022-11-30T02:27:52;98475.09;;;8.44
72054;BMP280;59918;51.280;7.950;2022-11-30T02:30:25;98475.28;;;8.42
72054;BMP280;59918;51.280;7.950;2022-11-30T02:33:02;98471.72;;;8.43
72054;BMP280;59918;51.280;7.950;2022-11-30T02:35:33;98479.41;;;8.43
72054;BMP280;59918;51.280;7.950;2022-11-30T02:38:01;98475.28;;;8.42
72054;BMP280;59918;51.280;7.950;2022-11-30T02:40:27;98474.50;;;8.42
72054;BMP280;59918;51.280;7.950;2022-11-30T02:42:54;98470.31;;;8.41
72054;BMP280;59918;51.280;7.950;2022-11-30T02:47:58;98473.03;;;8.39
72054;BMP280;59918;51.280;7.950;2022-11-30T02:50:36;98476.44;;;8.40
72054;BMP280;59918;51.280;7.950;2022-11-30T02:53:07;98479.31;;;8.37
72054;BMP280;59918;51.280;7.950;2022-11-30T02:55:33;98480.31;;;8.36
72054;BMP280;59918;51.280;7.950;2022-11-30T02:57:58;98471.63;;;8.37
72054;BMP280;59918;51.280;7.950;2022-11-30T03:00:24;98473.56;;;8.35
72054;BMP280;59918;51.280;7.950;2022-11-30T03:02:49;98476.94;;;8.36
72054;BMP280;59918;51.280;7.950;2022-11-30T03:05:14;98471.63;;;8.37
72054;BMP280;59918;51.280;7.950;2022-11-30T03:07:39;98468.13;;;8.38
72054;BMP280;59918;51.280;7.950;2022-11-30T03:10:05;98468.91;;;8.38
72054;BMP280;59918;51.280;7.950;2022-11-30T03:12:31;98464.41;;;8.40
72054;BMP280;59918;51.280;7.950;2022-11-30T03:14:56;98459.28;;;8.40
72054;BMP280;59918;51.280;7.950;2022-11-30T03:17:21;98466.78;;;8.42
72054;BMP280;59918;51.280;7.950;2022-11-30T03:19:47;98468.38;;;8.43
72054;BMP280;59918;51.280;7.950;2022-11-30T03:22:12;98467.59;;;8.42
72054;BMP280;59918;51.280;7.950;2022-11-30T03:24:40;98465.03;;;8.42
72054;BMP280;59918;51.280;7.950;2022-11-30T03:27:05;98469.00;;;8.45
72054;BMP280;59918;51.280;7.950;2022-11-30T03:29:31;98472.53;;;8.44
72054;BMP280;59918;51.280;7.950;2022-11-30T03:31:56;98476.06;;;8.43
72054;BMP280;59918;51.280;7.950;2022-11-30T03:34:21;98472.53;;;8.44
72054;BMP280;59918;51.280;7.950;2022-11-30T03:36:46;98477.69;;;8.44
72054;BMP280;59918;51.280;7.950;2022-11-30T03:39:12;98472.53;;;8.44
72054;BMP280;59918;51.280;7.950;2022-11-30T03:41:37;98473.50;;;8.43
72054;BMP280;59918;51.280;7.950;2022-11-30T03:44:02;98479.00;;;8.40
72054;BMP280;59918;51.280;7.950;2022-11-30T03:46:28;98481.19;;;8.43
72054;BMP280;59918;51.280;7.950;2022-11-30T03:48:56;98476.06;;;8.43
72054;BMP280;59918;51.280;7.950;2022-11-30T03:51:21;98491.44;;;8.43
72054;BMP280;59918;51.280;7.950;2022-11-30T03:53:46;98491.63;;;8.41
72054;BMP280;59918;51.280;7.950;2022-11-30T03:56:12;98489.88;;;8.42
72054;BMP280;59918;51.280;7.950;2022-11-30T03:58:37;98473.50;;;8.43
72054;BMP280;59918;51.280;7.950;2022-11-30T04:01:14;98471.72;;;8.43
72054;BMP280;59918;51.280;7.950;2022-11-30T04:03:40;98481.97;;;8.43
72054;BMP280;59918;51.280;7.950;2022-11-30T04:06:10;98485.97;;;8.46
72054;BMP280;59918;51.280;7.950;2022-11-30T04:08:36;98479.25;;;8.45
72054;BMP280;59918;51.280;7.950;2022-11-30T04:11:02;98487.56;;;8.47
72054;BMP280;59918;51.280;7.950;2022-11-30T04:13:28;98485.00;;;8.47
72054;BMP280;59918;51.280;7.950;2022-11-30T04:15:54;98486.59;;;8.48
72054;BMP280;59918;51.280;7.950;2022-11-30T04:18:22;98479.09;;;8.46
72054;BMP280;59918;51.280;7.950;2022-11-30T04:20:52;98485.97;;;8.46
72054;BMP280;59918;51.280;7.950;2022-11-30T04:23:19;98485.16;;;8.45
72054;BMP280;59918;51.280;7.950;2022-11-30T04:25:47;98481.97;;;8.43
72054;BMP280;59918;51.280;7.950;2022-11-30T04:28:13;98489.16;;;8.48
72054;BMP280;59918;51.280;7.950;2022-11-30T04:30:39;98490.75;;;8.49
72054;BMP280;59918;51.280;7.950;2022-11-30T04:33:05;98489.16;;;8.48
72054;BMP280;59918;51.280;7.950;2022-11-30T04:35:30;98498.44;;;8.49
72054;BMP280;59918;51.280;7.950;2022-11-30T04:37:55;98503.09;;;8.45
72054;BMP280;59918;51.280;7.950;2022-11-30T04:40:21;98500.91;;;8.42
72054;BMP280;59918;51.280;7.950;2022-11-30T04:42:46;98495.31;;;8.39
72054;BMP280;59918;51.280;7.950;2022-11-30T04:45:12;98504.34;;;8.35
72054;BMP280;59918;51.280;7.950;2022-11-30T04:47:38;98506.28;;;8.33
72054;BMP280;59918;51.280;7.950;2022-11-30T04:50:04;98505.47;;;8.33
72054;BMP280;59918;51.280;7.950;2022-11-30T04:52:29;98506.63;;;8.30
72054;BMP280;59918;51.280;7.950;2022-11-30T04:54:55;98506.34;;;8.25
72054;BMP280;59918;51.280;7.950;2022-11-30T04:57:23;98509.88;;;8.24
72054;BMP280;59918;51.280;7.950;2022-11-30T04:59:48;98517.91;;;8.21
72054;BMP280;59918;51.280;7.950;2022-11-30T05:02:14;98519.84;;;8.19
72054;BMP280;59918;51.280;7.950;2022-11-30T05:04:39;98523.34;;;8.18
72054;BMP280;59918;51.280;7.950;2022-11-30T05:07:05;98527.69;;;8.18
72054;BMP280;59918;51.280;7.950;2022-11-30T05:09:30;98521.94;;;8.16
72054;BMP280;59918;51.280;7.950;2022-11-30T05:11:58;98518.75;;;8.14
72054;BMP280;59918;51.280;7.950;2022-11-30T05:14:26;98528.03;;;8.15
72054;BMP280;59918;51.280;7.950;2022-11-30T05:16:51;98528.22;;;8.13
72054;BMP280;59918;51.280;7.950;2022-11-30T05:19:16;98522.63;;;8.10
72054;BMP280;59918;51.280;7.950;2022-11-30T05:21:42;98528.53;;;8.10
72054;BMP280;59918;51.280;7.950;2022-11-30T05:24:08;98531.09;;;8.10
72054;BMP280;59918;51.280;7.950;2022-11-30T05:26:36;98529.53;;;8.09
72054;BMP280;59918;51.280;7.950;2022-11-30T05:29:03;98535.75;;;8.07
72054;BMP280;59918;51.280;7.950;2022-11-30T05:31:28;98530.00;;;8.05
72054;BMP280;59918;51.280;7.950;2022-11-30T05:33:56;98529.38;;;8.03
72054;BMP280;59918;51.280;7.950;2022-11-30T05:36:22;98533.88;;;8.01
72054;BMP280;59918;51.280;7.950;2022-11-30T05:38:47;98536.31;;;7.95
72054;BMP280;59918;51.280;7.950;2022-11-30T05:41:12;98533.31;;;7.91
72054;BMP280;59918;51.280;7.950;2022-11-30T05:43:38;98538.44;;;7.91
72054;BMP280;59918;51.280;7.950;2022-11-30T05:46:05;98531.06;;;7.88
72054;BMP280;59918;51.280;7.950;2022-11-30T05:48:30;98534.94;;;7.84
72054;BMP280;59918;51.280;7.950;2022-11-30T05:51:09;98532.38;;;7.84
72054;BMP280;59918;51.280;7.950;2022-11-30T05:53:34;98538.16;;;7.78
72054;BMP280;59918;51.280;7.950;2022-11-30T05:56:04;98534.97;;;7.76
72054;BMP280;59918;51.280;7.950;2022-11-30T05:58:29;98533.56;;;7.74
72054;BMP280;59918;51.280;7.950;2022-11-30T06:00:55;98538.22;;;7.70
72054;BMP280;59918;51.280;7.950;2022-11-30T06:03:20;98542.53;;;7.70
72054;BMP280;59918;51.280;7.950;2022-11-30T06:05:49;98547.03;;;7.68
72054;BMP280;59918;51.280;7.950;2022-11-30T06:08:14;98544.78;;;7.65
72054;BMP280;59918;51.280;7.950;2022-11-30T06:10:42;98545.94;;;7.63
72054;BMP280;59918;51.280;7.950;2022-11-30T06:13:07;98541.81;;;7.62
72054;BMP280;59918;51.280;7.950;2022-11-30T06:15:33;98547.06;;;7.60
72054;BMP280;59918;51.280;7.950;2022-11-30T06:18:03;98541.16;;;7.60
72054;BMP280;59918;51.280;7.950;2022-11-30T06:20:29;98544.69;;;7.59
72054;BMP280;59918;51.280;7.950;2022-11-30T06:22:54;98545.66;;;7.58
72054;BMP280;59918;51.280;7.950;2022-11-30T06:25:20;98542.44;;;7.56
72054;BMP280;59918;51.280;7.950;2022-11-30T06:27:45;98545.00;;;7.56
72054;BMP280;59918;51.280;7.950;2022-11-30T06:30:11;98540.22;;;7.53
72054;BMP280;59918;51.280;7.950;2022-11-30T06:32:36;98547.75;;;7.54
72054;BMP280;59918;51.280;7.950;2022-11-30T06:35:01;98551.25;;;7.53
72054;BMP280;59918;51.280;7.950;2022-11-30T06:37:27;98551.25;;;7.53
72054;BMP280;59918;51.280;7.950;2022-11-30T06:39:52;98555.44;;;7.54
72054;BMP280;59918;51.280;7.950;2022-11-30T06:42:17;98559.91;;;7.52
72054;BMP280;59918;51.280;7.950;2022-11-30T06:44:43;98565.03;;;7.52
72054;BMP280;59918;51.280;7.950;2022-11-30T06:47:08;98561.66;;;7.52
72054;BMP280;59918;51.280;7.950;2022-11-30T06:49:33;98566.78;;;7.52
72054;BMP280;59918;51.280;7.950;2022-11-30T06:51:58;98569.34;;;7.52
72054;BMP280;59918;51.280;7.950;2022-11-30T06:54:23;98566.97;;;7.50
72054;BMP280;59918;51.280;7.950;2022-11-30T06:56:49;98569.69;;;7.49
72054;BMP280;59918;51.280;7.950;2022-11-30T06:59:14;98569.69;;;7.49
72054;BMP280;59918;51.280;7.950;2022-11-30T07:01:39;98568.91;;;7.48
72054;BMP280;59918;51.280;7.950;2022-11-30T07:04:04;98573.19;;;7.48
72054;BMP280;59918;51.280;7.950;2022-11-30T07:06:30;98568.06;;;7.48
72054;BMP280;59918;51.280;7.950;2022-11-30T07:08:55;98575.59;;;7.49
72054;BMP280;59918;51.280;7.950;2022-11-30T07:11:41;98579.13;;;7.48
72054;BMP280;59918;51.280;7.950;2022-11-30T07:14:06;98576.72;;;7.47
72054;BMP280;59918;51.280;7.950;2022-11-30T07:16:31;98586.97;;;7.47
72054;BMP280;59918;51.280;7.950;2022-11-30T07:18:56;98586.19;;;7.46
72054;BMP280;59918;51.280;7.950;2022-11-30T07:21:24;98587.91;;;7.46
72054;BMP280;59918;51.280;7.950;2022-11-30T07:23:49;98592.09;;;7.47
72054;BMP280;59918;51.280;7.950;2022-11-30T07:26:14;98597.38;;;7.45
72054;BMP280;59918;51.280;7.950;2022-11-30T07:28:41;98596.72;;;7.43
72054;BMP280;59918;51.280;7.950;2022-11-30T07:31:26;98598.50;;;7.43
72054;BMP280;59918;51.280;7.950;2022-11-30T07:33:55;98603.47;;;7.44
72054;BMP280;59918;51.280;7.950;2022-11-30T07:36:22;98601.53;;;7.46
72054;BMP280;59918;51.280;7.950;2022-11-30T07:38:48;98599.91;;;7.45
72054;BMP280;59918;51.280;7.950;2022-11-30T07:41:13;98606.66;;;7.46
72054;BMP280;59918;51.280;7.950;2022-11-30T07:43:38;98600.72;;;7.46
72054;BMP280;59918;51.280;7.950;2022-11-30T07:46:04;98606.66;;;7.46
72054;BMP280;59918;51.280;7.950;2022-11-30T07:48:30;98602.16;;;7.48
72054;BMP280;59918;51.280;7.950;2022-11-30T07:51:09;98613.03;;;7.50
72054;BMP280;59918;51.280;7.950;2022-11-30T07:56:28;98619.09;;;7.49
72054;BMP280;59918;51.280;7.950;2022-11-30T07:58:55;98611.28;;;7.51
72054;BMP280;59918;51.280;7.950;2022-11-30T08:01:22;98609.19;;;7.54
72054;BMP280;59918;51.280;7.950;2022-11-30T08:03:49;98613.31;;;7.55
72054;BMP280;59918;51.280;7.950;2022-11-30T08:06:19;98612.53;;;7.55
72054;BMP280;59918;51.280;7.950;2022-11-30T08:08:46;98624.34;;;7.56
72054;BMP280;59918;51.280;7.950;2022-11-30T08:11:14;98617.50;;;7.56
72054;BMP280;59918;51.280;7.950;2022-11-30T08:13:39;98617.81;;;7.53
72054;BMP280;59918;51.280;7.950;2022-11-30T08:16:13;98626.13;;;7.55
72054;BMP280;59918;51.280;7.950;2022-11-30T08:37:00;98631.91;;;7.49
72054;BMP280;59918;51.280;7.950;2022-11-30T08:42:28;98634.31;;;7.51
72054;BMP280;59918;51.280;7.950;2022-11-30T08:44:53;98629.66;;;7.54
72054;BMP280;59918;51.280;7.950;2022-11-30T08:47:18;98634.59;;;7.56
72054;BMP280;59918;51.280;7.950;2022-11-30T08:49:43;98637.00;;;7.57
72054;BMP280;59918;51.280;7.950;2022-11-30T08:52:12;98633.47;;;7.58
72054;BMP280;59918;51.280;7.950;2022-11-30T08:54:37;98645.16;;;7.61
72054;BMP280;59918;51.280;7.950;2022-11-30T08:57:02;98643.38;;;7.61
72054;BMP280;59918;51.280;7.950;2022-11-30T08:59:30;98645.78;;;7.63
72054;BMP280;59918;51.280;7.950;2022-11-30T09:01:55;98649.94;;;7.63
72054;BMP280;59918;51.280;7.950;2022-11-30T09:04:20;98645.63;;;7.64
72054;BMP280;59918;51.280;7.950;2022-11-30T09:06:48;98654.72;;;7.66
72054;BMP280;59918;51.280;7.950;2022-11-30T09:09:14;98653.16;;;7.65
72054;BMP280;59918;51.280;7.950;2022-11-30T09:11:40;98652.81;;;7.68
72054;BMP280;59918;51.280;7.950;2022-11-30T09:14:05;98656.00;;;7.70
72054;BMP280;59918;51.280;7.950;2022-11-30T09:16:30;98656.63;;;7.72
72054;BMP280;59918;51.280;7.950;2022-11-30T09:18:56;98659.03;;;7.74
72054;BMP280;59918;51.280;7.950;2022-11-30T09:21:29;98655.16;;;7.78
72054;BMP280;59918;51.280;7.950;2022-11-30T09:23:55;98660.28;;;7.78
72054;BMP280;59918;51.280;7.950;2022-11-30T09:26:21;98659.50;;;7.77
72054;BMP280;59918;51.280;7.950;2022-11-30T09:28:52;98660.28;;;7.78
72054;BMP280;59918;51.280;7.950;2022-11-30T09:31:27;98655.16;;;7.78
72054;BMP280;59918;51.280;7.950;2022-11-30T09:33:54;98654.19;;;7.79
72054;BMP280;59918;51.280;7.950;2022-11-30T09:36:21;98660.91;;;7.80
72054;BMP280;59918;51.280;7.950;2022-11-30T09:38:49;98658.22;;;7.81
72054;BMP280;59918;51.280;7.950;2022-11-30T09:44:20;98656.94;;;7.77
72054;BMP280;59918;51.280;7.950;2022-11-30T09:47:04;98657.72;;;7.78
72054;BMP280;59918;51.280;7.950;2022-11-30T09:49:44;98657.09;;;7.76
72054;BMP280;59918;51.280;7.950;2022-11-30T09:52:32;98660.59;;;7.75
72054;BMP280;59918;51.280;7.950;2022-11-30T09:55:07;98662.38;;;7.74
72054;BMP280;59918;51.280;7.950;2022-11-30T09:57:45;98656.63;;;7.72
72054;BMP280;59918;51.280;7.950;2022-11-30T10:00:16;98660.94;;;7.72
72054;BMP280;59918;51.280;7.950;2022-11-30T10:02:42;98665.28;;;7.71
72054;BMP280;59918;51.280;7.950;2022-11-30T10:10:42;98656.16;;;7.69
72054;BMP280;59918;51.280;7.950;2022-11-30T10:16:18;98657.13;;;7.68
72054;BMP280;59918;51.280;7.950;2022-11-30T10:19:04;98660.31;;;7.70
72054;BMP280;59918;51.280;7.950;2022-11-30T10:24:34;98648.31;;;7.70
72054;BMP280;59918;51.280;7.950;2022-11-30T10:27:17;98652.47;;;7.71
72054;BMP280;59918;51.280;7.950;2022-11-30T10:29:45;98651.50;;;7.72
72054;BMP280;59918;51.280;7.950;2022-11-30T10:32:19;98659.50;;;7.77
72054;BMP280;59918;51.280;7.950;2022-11-30T10:34:56;98660.13;;;7.79
72054;BMP280;59918;51.280;7.950;2022-11-30T10:37:44;98655.81;;;7.80
72054;BMP280;59918;51.280;7.950;2022-11-30T10:40:22;98651.16;;;7.83
72054;BMP280;59918;51.280;7.950;2022-11-30T10:42:58;98655.13;;;7.86
72054;BMP280;59918;51.280;7.950;2022-11-30T10:45:29;98659.47;;;7.85
72054;BMP280;59918;51.280;7.950;2022-11-30T10:50:57;98651.44;;;7.88
72054;BMP280;59918;51.280;7.950;2022-11-30T10:53:26;98654.47;;;7.92
72054;BMP280;59918;51.280;7.950;2022-11-30T10:55:58;98653.50;;;7.93
72054;BMP280;59918;51.280;7.950;2022-11-30T11:01:11;98654.13;;;7.95
72054;BMP280;59918;51.280;7.950;2022-11-30T11:06:31;98651.41;;;7.96
72054;BMP280;59918;51.280;7.950;2022-11-30T11:08:57;98650.59;;;7.96
72054;BMP280;59918;51.280;7.950;2022-11-30T11:11:34;98647.53;;;8.00
72054;BMP280;59918;51.280;7.950;2022-11-30T11:14:28;98643.56;;;7.98
72054;BMP280;59918;51.280;7.950;2022-11-30T11:19:42;98627.84;;;8.00
72054;BMP280;59918;51.280;7.950;2022-11-30T11:22:19;98632.63;;;8.03
72054;BMP280;59918;51.280;7.950;2022-11-30T11:25:08;98633.44;;;8.04
72054;BMP280;59918;51.280;7.950;2022-11-30T11:27:32;98633.44;;;8.04
72054;BMP280;59918;51.280;7.950;2022-11-30T11:30:27;98648.78;;;8.04
72054;BMP280;59918;51.280;7.950;2022-11-30T11:33:00;98645.44;;;8.03
72054;BMP280;59918;51.280;7.950;2022-11-30T11:37:57;98639.81;;;8.08
72054;BMP280;59918;51.280;7.950;2022-11-30T11:40:28;98652.50;;;8.09
72054;BMP280;59918;51.280;7.950;2022-11-30T11:42:54;98646.06;;;8.05
72054;BMP280;59918;51.280;7.950;2022-11-30T11:45:27;98644.81;;;8.01
72054;BMP280;59918;51.280;7.950;2022-11-30T11:48:05;98644.81;;;8.01
72054;BMP280;59918;51.280;7.950;2022-11-30T11:50:37;98658.75;;;7.99
72054;BMP280;59918;51.280;7.950;2022-11-30T11:53:17;98650.13;;;7.92
72054;BMP280;59918;51.280;7.950;2022-11-30T11:55:51;98653.22;;;7.88
72054;BMP280;59918;51.280;7.950;2022-11-30T12:01:16;98656.59;;;7.80
72054;BMP280;59918;51.280;7.950;2022-11-30T12:06:28;98658.66;;;7.85
72054;BMP280;59918;51.280;7.950;2022-11-30T12:09:02;98660.25;;;7.86
72054;BMP280;59918;51.280;7.950;2022-11-30T12:14:36;98656.09;;;7.85
72054;BMP280;59918;51.280;7.950;2022-11-30T12:17:29;98663.78;;;7.85
72054;BMP280;59918;51.280;7.950;2022-11-30T12:20:21;98657.06;;;7.84
72054;BMP280;59918;51.280;7.950;2022-11-30T12:23:05;98659.47;;;7.85
72054;BMP280;59918;51.280;7.950;2022-11-30T12:25:43;98662.81;;;7.86
72054;BMP280;59918;51.280;7.950;2022-11-30T12:28:26;98664.88;;;7.90
72054;BMP280;59918;51.280;7.950;2022-11-30T12:31:13;98658.81;;;7.91
72054;BMP280;59918;51.280;7.950;2022-11-30T12:42:17;98658.63;;;7.93
72054;BMP280;59918;51.280;7.950;2022-11-30T12:51:36;98661.16;;;7.93
72054;BMP280;59918;51.280;7.950;2022-11-30T12:54:41;98665.34;;;7.94
72054;BMP280;59918;51.280;7.950;2022-11-30T12:57:21;98662.78;;;7.94
72054;BMP280;59918;51.280;7.950;2022-11-30T13:05:28;98668.38;;;7.97
72054;BMP280;59918;51.280;7.950;2022-11-30T13:08:17;98668.19;;;7.98
72054;BMP280;59918;51.280;7.950;2022-11-30T13:10:49;98667.25;;;7.99
72054;BMP280;59918;51.280;7.950;2022-11-30T13:13:25;98669.81;;;7.99
72054;BMP280;59918;51.280;7.950;2022-11-30T13:16:04;98668.81;;;8.00
72054;BMP280;59918;51.280;7.950;2022-11-30T13:18:37;98664.53;;;8.01
72054;BMP280;59918;51.280;7.950;2022-11-30T13:21:04;98664.53;;;8.01
72054;BMP280;59918;51.280;7.950;2022-11-30T13:23:37;98670.28;;;8.03
72054;BMP280;59918;51.280;7.950;2022-11-30T13:41:33;98669.16;;;7.98
72054;BMP280;59918;51.280;7.950;2022-11-30T13:44:00;98669.97;;;7.98
72054;BMP280;59918;51.280;7.950;2022-11-30T13:46:26;98665.00;;;7.97
72054;BMP280;59918;51.280;7.950;2022-11-30T13:49:22;98672.06;;;7.95
72054;BMP280;59918;51.280;7.950;2022-11-30T13:51:48;98671.41;;;7.93
72054;BMP280;59918;51.280;7.950;2022-11-30T13:59:53;98674.31;;;7.90
72054;BMP280;59918;51.280;7.950;2022-11-30T14:20:53;98687.63;;;7.85
72054;BMP280;59918;51.280;7.950;2022-11-30T14:26:43;98689.72;;;7.82
72054;BMP280;59918;51.280;7.950;2022-11-30T14:29:16;98691.31;;;7.83
72054;BMP280;59918;51.280;7.950;2022-11-30T14:31:51;98694.69;;;7.83
72054;BMP280;59918;51.280;7.950;2022-11-30T14:37:27;98694.06;;;7.81
72054;BMP280;59918;51.280;7.950;2022-11-30T14:39:54;98696.13;;;7.78
72054;BMP280;59918;51.280;7.950;2022-11-30T14:42:21;98697.72;;;7.79
72054;BMP280;59918;51.280;7.950;2022-11-30T14:44:49;98693.59;;;7.78
72054;BMP280;59918;51.280;7.950;2022-11-30T14:49:54;98695.50;;;7.76
72054;BMP280;59918;51.280;7.950;2022-11-30T14:58:05;98709.59;;;7.72
72054;BMP280;59918;51.280;7.950;2022-11-30T15:00:40;98704.78;;;7.69
72054;BMP280;59918;51.280;7.950;2022-11-30T15:05:42;98711.06;;;7.66
72054;BMP280;59918;51.280;7.950;2022-11-30T15:08:16;98700.81;;;7.66
72054;BMP280;59918;51.280;7.950;2022-11-30T15:10:42;98704.66;;;7.63
72054;BMP280;59918;51.280;7.950;2022-11-30T15:13:14;98709.63;;;7.64
72054;BMP280;59918;51.280;7.950;2022-11-30T15:15:53;98709.78;;;7.63
72054;BMP280;59918;51.280;7.950;2022-11-30T15:18:29;98706.59;;;7.61
72054;BMP280;59918;51.280;7.950;2022-11-30T15:21:04;98699.06;;;7.59
72054;BMP280;59918;51.280;7.950;2022-11-30T15:23:31;98705.94;;;7.59
72054;BMP280;59918;51.280;7.950;2022-11-30T15:26:01;98699.88;;;7.60
72054;BMP280;59918;51.280;7.950;2022-11-30T15:28:40;98705.78;;;7.60
72054;BMP280;59918;51.280;7.950;2022-11-30T15:31:13;98700.69;;;7.60
72054;BMP280;59918;51.280;7.950;2022-11-30T15:33:41;98706.75;;;7.59
72054;BMP280;59918;51.280;7.950;2022-11-30T15:36:08;98705.78;;;7.60
72054;BMP280;59918;51.280;7.950;2022-11-30T15:38:36;98707.38;;;7.61
72054;BMP280;59918;51.280;7.950;2022-11-30T15:41:05;98706.75;;;7.59
72054;BMP280;59918;51.280;7.950;2022-11-30T15:43:38;98709.16;;;7.61
72054;BMP280;59918;51.280;7.950;2022-11-30T15:46:04;98709.31;;;7.59
72054;BMP280;59918;51.280;7.950;2022-11-30T15:48:31;98708.34;;;7.60
72054;BMP280;59918;51.280;7.950;2022-11-30T15:51:00;98709.94;;;7.61
72054;BMP280;59918;51.280;7.950;2022-11-30T15:53:31;98714.41;;;7.59
72054;BMP280;59918;51.280;7.950;2022-11-30T15:56:03;98718.75;;;7.59
72054;BMP280;59918;51.280;7.950;2022-11-30T15:58:41;98714.75;;;7.56
72054;BMP280;59918;51.280;7.950;2022-11-30T16:01:16;98717.31;;;7.56
72054;BMP280;59918;51.280;7.950;2022-11-30T16:06:19;98720.03;;;7.55
72054;BMP280;59918;51.280;7.950;2022-11-30T16:08:54;98724.19;;;7.56
72054;BMP280;59918;51.280;7.950;2022-11-30T16:11:19;98724.19;;;7.56
72054;BMP280;59918;51.280;7.950;2022-11-30T16:13:45;98733.63;;;7.55
72054;BMP280;59918;51.280;7.950;2022-11-30T16:16:18;98730.13;;;7.56
72054;BMP280;59918;51.280;7.950;2022-11-30T16:18:44;98735.41;;;7.55
72054;BMP280;59918;51.280;7.950;2022-11-30T16:21:16;98733.63;;;7.55
72054;BMP280;59918;51.280;7.950;2022-11-30T16:23:42;98732.84;;;7.55
72054;BMP280;59918;51.280;7.950;2022-11-30T16:26:16;98739.53;;;7.56
72054;BMP280;59918;51.280;7.950;2022-11-30T16:28:42;98744.22;;;7.52
72054;BMP280;59918;51.280;7.950;2022-11-30T16:31:17;98740.66;;;7.53
72054;BMP280;59918;51.280;7.950;2022-11-30T16:33:44;98734.28;;;7.49
72054;BMP280;59918;51.280;7.950;2022-11-30T16:36:17;98731.56;;;7.51
72054;BMP280;59918;51.280;7.950;2022-11-30T16:38:52;98729.16;;;7.49
72054;BMP280;59918;51.280;7.950;2022-11-30T16:41:20;98737.81;;;7.48
72054;BMP280;59918;51.280;7.950;2022-11-30T16:43:50;98732.69;;;7.48
72054;BMP280;59918;51.280;7.950;2022-11-30T16:46:27;98741.31;;;7.47
72054;BMP280;59918;51.280;7.950;2022-11-30T16:48:53;98743.25;;;7.45
72054;BMP280;59918;51.280;7.950;2022-11-30T16:51:27;98748.38;;;7.45
72054;BMP280;59918;51.280;7.950;2022-11-30T16:53:52;98746.78;;;7.44
72054;BMP280;59918;51.280;7.950;2022-11-30T16:56:21;98746.44;;;7.47
72054;BMP280;59918;51.280;7.950;2022-11-30T16:58:49;98746.28;;;7.49
72054;BMP280;59918;51.280;7.950;2022-11-30T17:01:20;98743.09;;;7.47
72054;BMP280;59918;51.280;7.950;2022-11-30T17:03:52;98753.16;;;7.48
72054;BMP280;59918;51.280;7.950;2022-11-30T17:06:20;98758.09;;;7.50
72054;BMP280;59918;51.280;7.950;2022-11-30T17:08:49;98760.03;;;7.48